sensor_id;sensor_type;location;lat;lon;timestamp;pressure;altitude;pressure_sealevel;temperature;humidity
63512;BME280;49666;52.030;8.884;2023-11-21T00:00:49;99723.03;;;20.07;48.25
63512;BME280;49666;52.030;8.884;2023-11-21T00:03:14;99727.00;;;20.10;48.28
63512;BME280;49666;52.030;8.884;2023-11-21T00:05:40;99724.63;;;20.08;48.28
63512;BME280;49666;52.030;8.884;2023-11-21T00:08:09;99720.63;;;20.10;48.25
63512;BME280;49666;52.030;8.884;2023-11-21T00:10:34;99720.22;;;20.11;48.16
63512;BME280;49666;52.030;8.884;2023-11-21T00:13:00;99726.59;;;20.12;48.04
63512;BME280;49666;52.030;8.884;2023-11-21T00:15:27;99721.03;;;20.12;48.04
63512;BME280;49666;52.030;8.884;2023-11-21T00:17:52;99730.94;;;20.13;47.96
63512;BME280;49666;52.030;8.884;2023-11-21T00:20:17;99726.97;;;20.14;48.05
63512;BME280;49666;52.030;8.884;2023-11-21T00:22:43;99728.16;;;20.13;48.30
63512;BME280;49666;52.030;8.884;2023-11-21T00:25:08;99730.16;;;20.12;48.13
63512;BME280;49666;52.030;8.884;2023-11-21T00:27:35;99728.16;;;20.13;47.87
63512;BME280;49666;52.030;8.884;2023-11-21T00:30:01;99729.38;;;20.12;48.24
63512;BME280;49666;52.030;8.884;2023-11-21T00:32:26;99728.56;;;20.11;48.03
63512;BME280;49666;52.030;8.884;2023-11-21T00:34:51;99738.94;;;20.11;48.12
63512;BME280;49666;52.030;8.884;2023-11-21T00:37:17;99740.94;;;20.10;47.96
63512;BME280;49666;52.030;8.884;2023-11-21T00:39:42;99737.34;;;20.10;47.97
63512;BME280;49666;52.030;8.884;2023-11-21T00:42:07;99736.56;;;20.09;47.91
63512;BME280;49666;52.030;8.884;2023-11-21T00:44:33;99736.53;;;20.05;48.18
63512;BME280;49666;52.030;8.884;2023-11-21T00:46:59;99751.28;;;20.06;48.16
63512;BME280;49666;52.030;8.884;2023-11-21T00:49:24;99748.50;;;20.06;48.14
63512;BME280;49666;52.030;8.884;2023-11-21T00:51:50;99745.31;;;20.04;48.06
63512;BME280;49666;52.030;8.884;2023-11-21T00:54:15;99744.91;;;20.02;48.24
63512;BME280;49666;52.030;8.884;2023-11-21T00:56:43;99750.50;;;20.02;48.11
63512;BME280;49666;52.030;8.884;2023-11-21T00:59:08;99750.50;;;20.02;48.05
63512;BME280;49666;52.030;8.884;2023-11-21T01:01:34;99754.88;;;20.03;48.00
63512;BME280;49666;52.030;8.884;2023-11-21T01:03:59;99748.50;;;20.02;48.11
63512;BME280;49666;52.030;8.884;2023-11-21T01:06:25;99757.25;;;20.04;48.22
63512;BME280;49666;52.030;8.884;2023-11-21T01:08:50;99754.84;;;20.06;48.11
63512;BME280;49666;52.030;8.884;2023-11-21T01:11:15;99752.88;;;20.07;48.04
63512;BME280;49666;52.030;8.884;2023-11-21T01:13:41;99738.97;;;20.07;47.93
63512;BME280;49666;52.030;8.884;2023-11-21T01:16:07;99751.66;;;20.08;47.88
63512;BME280;49666;52.030;8.884;2023-11-21T01:18:33;99760.03;;;20.08;48.03
63512;BME280;49666;52.030;8.884;2023-11-21T01:20:58;99759.63;;;20.10;48.10
63512;BME280;49666;52.030;8.884;2023-11-21T01:23:26;99757.66;;;20.10;47.95
63512;BME280;49666;52.030;8.884;2023-11-21T01:25:52;99762.00;;;20.11;47.89
63512;BME280;49666;52.030;8.884;2023-11-21T01:28:18;99767.19;;;20.13;48.08
63512;BME280;49666;52.030;8.884;2023-11-21T01:30:43;99766.00;;;20.14;48.10
63512;BME280;49666;52.030;8.884;2023-11-21T01:33:09;99771.56;;;20.14;48.06
63512;BME280;49666;52.030;8.884;2023-11-21T01:35:35;99770.38;;;20.15;48.06
63512;BME280;49666;52.030;8.884;2023-11-21T01:38:01;99769.59;;;20.14;47.99
63512;BME280;49666;52.030;8.884;2023-11-21T01:40:26;99766.41;;;20.12;48.04
63512;BME280;49666;52.030;8.884;2023-11-21T01:42:52;99766.00;;;20.14;48.11
63512;BME280;49666;52.030;8.884;2023-11-21T01:45:18;99770.38;;;20.11;47.95
63512;BME280;49666;52.030;8.884;2023-11-21T01:47:44;99765.22;;;20.13;47.94
63512;BME280;49666;52.030;8.884;2023-11-21T01:50:14;99779.16;;;20.13;48.11
63512;BME280;49666;52.030;8.884;2023-11-21T01:52:43;99771.97;;;20.12;48.06
63512;BME280;49666;52.030;8.884;2023-11-21T01:55:09;99768.41;;;20.12;47.96
63512;BME280;49666;52.030;8.884;2023-11-21T01:57:35;99764.41;;;20.13;48.10
63512;BME280;49666;52.030;8.884;2023-11-21T02:00:03;99765.22;;;20.10;47.99
63512;BME280;49666;52.030;8.884;2023-11-21T02:02:47;99772.38;;;20.11;48.09
63512;BME280;49666;52.030;8.884;2023-11-21T02:05:17;99770.78;;;20.10;48.16
63512;BME280;49666;52.030;8.884;2023-11-21T02:07:47;99769.97;;;20.05;48.18
63512;BME280;49666;52.030;8.884;2023-11-21T02:10:17;99760.44;;;20.06;48.17
63512;BME280;49666;52.030;8.884;2023-11-21T02:12:48;99774.78;;;20.05;48.26
63512;BME280;49666;52.030;8.884;2023-11-21T02:15:14;99765.22;;;20.06;47.94
63512;BME280;49666;52.030;8.884;2023-11-21T02:17:45;99769.97;;;20.05;48.04
63512;BME280;49666;52.030;8.884;2023-11-21T02:20:13;99778.75;;;20.04;48.17
63512;BME280;49666;52.030;8.884;2023-11-21T02:22:41;99782.75;;;20.03;48.10
63512;BME280;49666;52.030;8.884;2023-11-21T02:25:08;99776.75;;;20.01;48.21
63512;BME280;49666;52.030;8.884;2023-11-21T02:27:33;99783.53;;;20.03;48.11
63512;BME280;49666;52.030;8.884;2023-11-21T02:29:59;99787.53;;;20.06;48.15
63512;BME280;49666;52.030;8.884;2023-11-21T02:32:26;99788.31;;;20.06;48.01
63512;BME280;49666;52.030;8.884;2023-11-21T02:34:51;99794.69;;;20.07;47.93
63512;BME280;49666;52.030;8.884;2023-11-21T02:37:17;99795.47;;;20.07;48.07
63512;BME280;49666;52.030;8.884;2023-11-21T02:39:42;99796.25;;;20.08;48.14
63512;BME280;49666;52.030;8.884;2023-11-21T02:42:08;99792.28;;;20.09;48.03
63512;BME280;49666;52.030;8.884;2023-11-21T02:44:33;99795.06;;;20.09;47.79
63512;BME280;49666;52.030;8.884;2023-11-21T02:46:59;99802.25;;;20.10;47.85
63512;BME280;49666;52.030;8.884;2023-11-21T02:49:25;99802.25;;;20.10;47.87
63512;BME280;49666;52.030;8.884;2023-11-21T02:51:53;99798.25;;;20.11;47.87
63512;BME280;49666;52.030;8.884;2023-11-21T02:54:20;99798.25;;;20.11;47.89
63512;BME280;49666;52.030;8.884;2023-11-21T02:56:47;99802.63;;;20.12;47.84
63512;BME280;49666;52.030;8.884;2023-11-21T02:59:12;99799.84;;;20.12;47.68
63512;BME280;49666;52.030;8.884;2023-11-21T03:01:37;99802.63;;;20.12;47.85
63512;BME280;49666;52.030;8.884;2023-11-21T03:04:03;99806.63;;;20.15;47.68
63512;BME280;49666;52.030;8.884;2023-11-21T03:06:28;99809.81;;;20.13;47.74
63512;BME280;49666;52.030;8.884;2023-11-21T03:08:54;99804.22;;;20.13;47.86
63512;BME280;49666;52.030;8.884;2023-11-21T03:11:19;99809.81;;;20.13;47.91
63512;BME280;49666;52.030;8.884;2023-11-21T03:13:44;99811.78;;;20.13;47.68
63512;BME280;49666;52.030;8.884;2023-11-21T03:16:10;99820.53;;;20.11;47.73
63512;BME280;49666;52.030;8.884;2023-11-21T03:18:37;99816.19;;;20.10;47.71
63512;BME280;49666;52.030;8.884;2023-11-21T03:21:03;99817.75;;;20.11;47.84
63512;BME280;49666;52.030;8.884;2023-11-21T03:23:29;99815.38;;;20.10;47.80
63512;BME280;49666;52.030;8.884;2023-11-21T03:25:54;99824.13;;;20.08;47.85
63512;BME280;49666;52.030;8.884;2023-11-21T03:28:20;99826.53;;;20.06;48.14
63512;BME280;49666;52.030;8.884;2023-11-21T03:30:45;99836.88;;;20.05;48.03
63512;BME280;49666;52.030;8.884;2023-11-21T03:33:10;99842.44;;;20.05;47.82
63512;BME280;49666;52.030;8.884;2023-11-21T03:35:36;99829.31;;;20.06;47.90
63512;BME280;49666;52.030;8.884;2023-11-21T03:38:01;99830.91;;;20.03;47.94
63512;BME280;49666;52.030;8.884;2023-11-21T03:40:27;99835.69;;;20.03;47.86
63512;BME280;49666;52.030;8.884;2023-11-21T03:42:52;99832.91;;;20.03;47.69
63512;BME280;49666;52.030;8.884;2023-11-21T03:45:17;99840.06;;;20.04;47.83
63512;BME280;49666;52.030;8.884;2023-11-21T03:47:43;99842.84;;;20.07;48.03
63512;BME280;49666;52.030;8.884;2023-11-21T03:50:09;99845.66;;;20.07;47.79
63512;BME280;49666;52.030;8.884;2023-11-21T03:52:34;99837.25;;;20.11;47.79
63512;BME280;49666;52.030;8.884;2023-11-21T03:55:03;99844.84;;;20.14;47.79
63512;BME280;49666;52.030;8.884;2023-11-21T03:57:29;99848.81;;;20.17;47.69
63512;BME280;49666;52.030;8.884;2023-11-21T03:59:54;99847.63;;;20.21;47.51
63512;BME280;49666;52.030;8.884;2023-11-21T04:02:20;99859.97;;;20.24;47.41
63512;BME280;49666;52.030;8.884;2023-11-21T04:04:45;99852.78;;;20.27;47.53
63512;BME280;49666;52.030;8.884;2023-11-21T04:07:11;99858.38;;;20.30;47.30
63512;BME280;49666;52.030;8.884;2023-11-21T04:09:38;99854.38;;;20.31;47.25
63512;BME280;49666;52.030;8.884;2023-11-21T04:12:04;99860.78;;;20.32;47.15
63512;BME280;49666;52.030;8.884;2023-11-21T04:14:29;99859.19;;;20.34;47.26
63512;BME280;49666;52.030;8.884;2023-11-21T04:16:55;99865.53;;;20.35;47.17
63512;BME280;49666;52.030;8.884;2023-11-21T04:19:20;99873.50;;;20.36;47.24
63512;BME280;49666;52.030;8.884;2023-11-21T04:21:46;99873.09;;;20.38;47.17
63512;BME280;49666;52.030;8.884;2023-11-21T04:24:11;99871.91;;;20.39;47.05
63512;BME280;49666;52.030;8.884;2023-11-21T04:26:37;99876.28;;;20.40;46.94
63512;BME280;49666;52.030;8.884;2023-11-21T04:29:02;99875.91;;;20.41;47.09
63512;BME280;49666;52.030;8.884;2023-11-21T04:31:28;99875.91;;;20.41;46.93
63512;BME280;49666;52.030;8.884;2023-11-21T04:33:53;99885.06;;;20.42;47.18
63512;BME280;49666;52.030;8.884;2023-11-21T04:36:19;99883.88;;;20.43;47.07
63512;BME280;49666;52.030;8.884;2023-11-21T04:38:45;99884.28;;;20.41;47.11
63512;BME280;49666;52.030;8.884;2023-11-21T04:41:10;99879.88;;;20.40;46.95
63512;BME280;49666;52.030;8.884;2023-11-21T04:43:36;99875.50;;;20.39;47.06
63512;BME280;49666;52.030;8.884;2023-11-21T04:46:02;99883.06;;;20.39;47.00
63512;BME280;49666;52.030;8.884;2023-11-21T04:48:27;99884.66;;;20.36;47.02
63512;BME280;49666;52.030;8.884;2023-11-21T04:50:52;99882.66;;;20.37;46.92
63512;BME280;49666;52.030;8.884;2023-11-21T04:53:18;99883.06;;;20.35;47.19
63512;BME280;49666;52.030;8.884;2023-11-21T04:55:43;99886.66;;;20.36;46.93
63512;BME280;49666;52.030;8.884;2023-11-21T04:58:09;99899.00;;;20.35;47.08
63512;BME280;49666;52.030;8.884;2023-11-21T05:00:35;99892.63;;;20.31;47.17
63512;BME280;49666;52.030;8.884;2023-11-21T05:03:02;99895.03;;;20.29;47.11
63512;BME280;49666;52.030;8.884;2023-11-21T05:05:27;99891.84;;;20.30;47.11
63512;BME280;49666;52.030;8.884;2023-11-21T05:07:52;99891.44;;;20.28;47.11
63512;BME280;49666;52.030;8.884;2023-11-21T05:10:19;99892.25;;;20.29;47.09
63512;BME280;49666;52.030;8.884;2023-11-21T05:12:44;99902.19;;;20.30;47.03
63512;BME280;49666;52.030;8.884;2023-11-21T05:15:13;99893.44;;;20.28;47.12
63512;BME280;49666;52.030;8.884;2023-11-21T05:17:40;99891.81;;;20.27;47.17
63512;BME280;49666;52.030;8.884;2023-11-21T05:20:13;99892.63;;;20.27;47.06
63512;BME280;49666;52.030;8.884;2023-11-21T05:22:40;99895.00;;;20.25;47.79
63512;BME280;49666;52.030;8.884;2023-11-21T05:25:06;99902.19;;;20.22;48.29
63512;BME280;49666;52.030;8.884;2023-11-21T05:27:33;99902.19;;;20.22;48.68
63512;BME280;49666;52.030;8.884;2023-11-21T05:29:59;99908.97;;;20.21;48.70
63512;BME280;49666;52.030;8.884;2023-11-21T05:32:25;99903.75;;;20.20;49.31
63512;BME280;49666;52.030;8.884;2023-11-21T05:34:50;99907.75;;;20.19;49.19
63512;BME280;49666;52.030;8.884;2023-11-21T05:37:15;99919.31;;;20.17;49.53
63512;BME280;49666;52.030;8.884;2023-11-21T05:39:42;99918.50;;;20.17;49.56
63512;BME280;49666;52.030;8.884;2023-11-21T05:42:07;99924.88;;;20.17;49.69
63512;BME280;49666;52.030;8.884;2023-11-21T05:44:35;99928.47;;;20.18;49.80
63512;BME280;49666;52.030;8.884;2023-11-21T05:47:01;99929.66;;;20.17;49.82
63512;BME280;49666;52.030;8.884;2023-11-21T05:49:26;99932.84;;;20.15;49.77
63512;BME280;49666;52.030;8.884;2023-11-21T05:51:54;99932.44;;;20.17;49.83
63512;BME280;49666;52.030;8.884;2023-11-21T05:54:19;99933.25;;;20.17;49.49
63512;BME280;49666;52.030;8.884;2023-11-21T05:56:45;99934.44;;;20.20;49.83
63512;BME280;49666;52.030;8.884;2023-11-21T05:59:12;99928.06;;;20.19;49.41
63512;BME280;49666;52.030;8.884;2023-11-21T06:01:37;99934.81;;;20.18;49.58
63512;BME280;49666;52.030;8.884;2023-11-21T06:04:04;99935.63;;;20.19;49.78
63512;BME280;49666;52.030;8.884;2023-11-21T06:06:30;99943.59;;;20.20;49.58
63512;BME280;49666;52.030;8.884;2023-11-21T06:08:56;99941.63;;;20.17;49.60
63512;BME280;49666;52.030;8.884;2023-11-21T06:11:22;99942.41;;;20.18;49.60
63512;BME280;49666;52.030;8.884;2023-11-21T06:13:47;99955.56;;;20.17;50.00
63512;BME280;49666;52.030;8.884;2023-11-21T06:16:13;99949.16;;;20.17;49.62
63512;BME280;49666;52.030;8.884;2023-11-21T06:18:41;99958.34;;;20.17;49.55
63512;BME280;49666;52.030;8.884;2023-11-21T06:21:09;99961.50;;;20.19;49.55
63512;BME280;49666;52.030;8.884;2023-11-21T06:23:34;99962.69;;;20.18;49.82
63512;BME280;49666;52.030;8.884;2023-11-21T06:26:00;99967.88;;;20.20;49.53
63512;BME280;49666;52.030;8.884;2023-11-21T06:28:25;99973.09;;;20.21;49.78
63512;BME280;49666;52.030;8.884;2023-11-21T06:30:50;99977.84;;;20.21;49.83
63512;BME280;49666;52.030;8.884;2023-11-21T06:33:16;99984.63;;;20.23;50.00
63512;BME280;49666;52.030;8.884;2023-11-21T06:35:41;99980.66;;;20.24;50.06
63512;BME280;49666;52.030;8.884;2023-11-21T06:38:06;99990.59;;;20.25;49.96
63512;BME280;49666;52.030;8.884;2023-11-21T06:40:34;100002.16;;;20.28;49.89
63512;BME280;49666;52.030;8.884;2023-11-21T06:42:59;99999.75;;;20.30;49.77
63512;BME280;49666;52.030;8.884;2023-11-21T06:45:26;99993.78;;;20.31;49.92
63512;BME280;49666;52.030;8.884;2023-11-21T06:47:51;100007.31;;;20.33;49.53
63512;BME280;49666;52.030;8.884;2023-11-21T06:50:17;100008.94;;;20.34;49.71
63512;BME280;49666;52.030;8.884;2023-11-21T06:52:42;100012.53;;;20.34;49.74
63512;BME280;49666;52.030;8.884;2023-11-21T06:55:08;100014.91;;;20.36;49.53
63512;BME280;49666;52.030;8.884;2023-11-21T06:57:35;100018.50;;;20.36;49.40
63512;BME280;49666;52.030;8.884;2023-11-21T07:00:00;100020.88;;;20.38;49.31
63512;BME280;49666;52.030;8.884;2023-11-21T07:02:25;100022.50;;;20.39;49.39
63512;BME280;49666;52.030;8.884;2023-11-21T07:04:51;100017.69;;;20.39;49.21
63512;BME280;49666;52.030;8.884;2023-11-21T07:07:18;100030.47;;;20.40;49.19
63512;BME280;49666;52.030;8.884;2023-11-21T07:09:43;100032.44;;;20.40;49.13
63512;BME280;49666;52.030;8.884;2023-11-21T07:12:08;100026.84;;;20.40;49.32
63512;BME280;49666;52.030;8.884;2023-11-21T07:14:34;100034.44;;;20.39;49.07
63512;BME280;49666;52.030;8.884;2023-11-21T07:16:59;100040.78;;;20.40;49.12
63512;BME280;49666;52.030;8.884;2023-11-21T07:19:25;100040.00;;;20.39;49.33
63512;BME280;49666;52.030;8.884;2023-11-21T07:21:50;100040.00;;;20.39;48.96
63512;BME280;49666;52.030;8.884;2023-11-21T07:24:16;100046.78;;;20.38;49.14
63512;BME280;49666;52.030;8.884;2023-11-21T07:26:42;100048.38;;;20.36;48.97
63512;BME280;49666;52.030;8.884;2023-11-21T07:29:08;100052.75;;;20.37;49.13
63512;BME280;49666;52.030;8.884;2023-11-21T07:31:33;100066.69;;;20.37;48.96
63512;BME280;49666;52.030;8.884;2023-11-21T07:33:59;100064.28;;;20.35;49.11
63512;BME280;49666;52.030;8.884;2023-11-21T07:36:25;100066.28;;;20.35;49.28
63512;BME280;49666;52.030;8.884;2023-11-21T07:38:50;100071.09;;;20.34;49.14
63512;BME280;49666;52.030;8.884;2023-11-21T07:41:17;100069.47;;;20.33;49.03
63512;BME280;49666;52.030;8.884;2023-11-21T07:43:46;100071.06;;;20.31;49.20
63512;BME280;49666;52.030;8.884;2023-11-21T07:46:12;100073.06;;;20.30;49.06
63512;BME280;49666;52.030;8.884;2023-11-21T07:48:42;100077.03;;;20.29;49.08
63512;BME280;49666;52.030;8.884;2023-11-21T07:51:08;100075.03;;;20.30;49.03
63512;BME280;49666;52.030;8.884;2023-11-21T07:53:34;100082.59;;;20.29;49.20
63512;BME280;49666;52.030;8.884;2023-11-21T07:56:04;100077.81;;;20.30;49.15
63512;BME280;49666;52.030;8.884;2023-11-21T07:58:30;100096.16;;;20.27;49.23
63512;BME280;49666;52.030;8.884;2023-11-21T08:00:56;100093.38;;;20.27;49.23
63512;BME280;49666;52.030;8.884;2023-11-21T08:03:21;100096.16;;;20.27;49.33
63512;BME280;49666;52.030;8.884;2023-11-21T08:05:47;100097.34;;;20.26;49.27
63512;BME280;49666;52.030;8.884;2023-11-21T08:08:12;100101.72;;;20.23;49.26
63512;BME280;49666;52.030;8.884;2023-11-21T08:10:38;100104.09;;;20.21;49.34
63512;BME280;49666;52.030;8.884;2023-11-21T08:13:04;100104.47;;;20.20;49.47
63512;BME280;49666;52.030;8.884;2023-11-21T08:15:30;100109.25;;;20.19;49.47
63512;BME280;49666;52.030;8.884;2023-11-21T08:17:57;100118.00;;;20.18;49.27
63512;BME280;49666;52.030;8.884;2023-11-21T08:20:24;100114.03;;;20.19;49.29
63512;BME280;49666;52.030;8.884;2023-11-21T08:22:50;100116.84;;;20.22;49.29
63512;BME280;49666;52.030;8.884;2023-11-21T08:25:17;100117.25;;;20.24;49.27
63512;BME280;49666;52.030;8.884;2023-11-21T08:27:45;100117.25;;;20.24;49.29
63512;BME280;49666;52.030;8.884;2023-11-21T08:30:10;100119.66;;;20.26;49.13
63512;BME280;49666;52.030;8.884;2023-11-21T08:32:37;100114.84;;;20.27;49.26
63512;BME280;49666;52.030;8.884;2023-11-21T08:35:02;100120.84;;;20.29;49.33
63512;BME280;49666;52.030;8.884;2023-11-21T08:37:28;100129.22;;;20.29;49.34
63512;BME280;49666;52.030;8.884;2023-11-21T08:39:55;100130.00;;;20.29;49.31
63512;BME280;49666;52.030;8.884;2023-11-21T08:42:23;100131.22;;;20.32;49.14
63512;BME280;49666;52.030;8.884;2023-11-21T08:44:48;100130.81;;;20.33;49.05
63512;BME280;49666;52.030;8.884;2023-11-21T08:47:13;100140.41;;;20.36;49.25
63512;BME280;49666;52.030;8.884;2023-11-21T08:49:39;100134.81;;;20.36;49.12
63512;BME280;49666;52.030;8.884;2023-11-21T08:52:04;100143.19;;;20.36;49.38
63512;BME280;49666;52.030;8.884;2023-11-21T08:54:30;100160.31;;;20.38;48.93
63512;BME280;49666;52.030;8.884;2023-11-21T08:56:56;100159.91;;;20.39;48.93
63512;BME280;49666;52.030;8.884;2023-11-21T08:59:24;100168.28;;;20.39;48.98
63512;BME280;49666;52.030;8.884;2023-11-21T09:01:49;100164.69;;;20.39;49.05
63512;BME280;49666;52.030;8.884;2023-11-21T09:04:14;100163.50;;;20.40;48.86
63512;BME280;49666;52.030;8.884;2023-11-21T09:06:39;100169.88;;;20.40;49.03
63512;BME280;49666;52.030;8.884;2023-11-21T09:09:05;100173.47;;;20.41;48.97
63512;BME280;49666;52.030;8.884;2023-11-21T09:11:32;100175.47;;;20.40;48.96
63512;BME280;49666;52.030;8.884;2023-11-21T09:13:59;100176.69;;;20.43;48.87
63512;BME280;49666;52.030;8.884;2023-11-21T09:16:24;100170.69;;;20.41;48.82
63512;BME280;49666;52.030;8.884;2023-11-21T09:18:50;100176.25;;;20.41;48.76
63512;BME280;49666;52.030;8.884;2023-11-21T09:21:15;100185.00;;;20.39;49.07
63512;BME280;49666;52.030;8.884;2023-11-21T09:23:40;100187.41;;;20.37;49.08
63512;BME280;49666;52.030;8.884;2023-11-21T09:26:06;100191.38;;;20.36;48.89
63512;BME280;49666;52.030;8.884;2023-11-21T09:28:31;100196.97;;;20.36;48.79
63512;BME280;49666;52.030;8.884;2023-11-21T09:30:57;100201.31;;;20.34;49.20
63512;BME280;49666;52.030;8.884;2023-11-21T09:33:22;100204.91;;;20.31;48.94
63512;BME280;49666;52.030;8.884;2023-11-21T09:35:50;100211.66;;;20.30;49.30
63512;BME280;49666;52.030;8.884;2023-11-21T09:38:16;100215.22;;;20.27;49.03
63512;BME280;49666;52.030;8.884;2023-11-21T09:40:41;100213.25;;;20.27;49.34
63512;BME280;49666;52.030;8.884;2023-11-21T09:43:12;100221.63;;;20.27;49.37
63512;BME280;49666;52.030;8.884;2023-11-21T09:45:45;100213.63;;;20.25;49.29
63512;BME280;49666;52.030;8.884;2023-11-21T09:48:11;100225.19;;;20.28;49.32
63512;BME280;49666;52.030;8.884;2023-11-21T09:50:37;100222.81;;;20.26;49.13
63512;BME280;49666;52.030;8.884;2023-11-21T09:55:32;100229.19;;;20.34;49.18
63512;BME280;49666;52.030;8.884;2023-11-21T09:58:02;100232.81;;;20.34;49.14
63512;BME280;49666;52.030;8.884;2023-11-21T10:00:29;100237.19;;;20.35;48.95
63512;BME280;49666;52.030;8.884;2023-11-21T10:02:58;100238.38;;;20.34;48.93
63512;BME280;49666;52.030;8.884;2023-11-21T10:05:25;100248.72;;;20.34;48.94
63512;BME280;49666;52.030;8.884;2023-11-21T10:07:50;100254.28;;;20.34;48.86
63512;BME280;49666;52.030;8.884;2023-11-21T10:10:19;100259.88;;;20.34;49.07
63512;BME280;49666;52.030;8.884;2023-11-21T10:12:56;100267.06;;;20.35;49.08
63512;BME280;49666;52.030;8.884;2023-11-21T10:15:22;100269.81;;;20.31;49.08
63512;BME280;49666;52.030;8.884;2023-11-21T10:17:55;100269.03;;;20.31;48.90
63512;BME280;49666;52.030;8.884;2023-11-21T10:20:20;100274.22;;;20.29;49.11
63512;BME280;49666;52.030;8.884;2023-11-21T10:22:48;100274.59;;;20.27;49.00
63512;BME280;49666;52.030;8.884;2023-11-21T10:25:13;100273.00;;;20.26;49.10
63512;BME280;49666;52.030;8.884;2023-11-21T10:27:47;100282.97;;;20.31;48.80
63512;BME280;49666;52.030;8.884;2023-11-21T10:30:12;100294.50;;;20.33;49.00
63512;BME280;49666;52.030;8.884;2023-11-21T10:32:41;100289.38;;;20.35;49.03
63512;BME280;49666;52.030;8.884;2023-11-21T10:35:08;100296.94;;;20.34;49.03
63512;BME280;49666;52.030;8.884;2023-11-21T10:37:40;100289.38;;;20.35;48.85
63512;BME280;49666;52.030;8.884;2023-11-21T10:40:09;100286.97;;;20.33;48.98
63512;BME280;49666;52.030;8.884;2023-11-21T10:42:37;100287.78;;;20.37;48.88
63512;BME280;49666;52.030;8.884;2023-11-21T10:45:04;100292.13;;;20.31;48.74
63512;BME280;49666;52.030;8.884;2023-11-21T10:47:35;100303.66;;;20.26;49.03
63512;BME280;49666;52.030;8.884;2023-11-21T10:50:01;100306.03;;;20.24;49.08
63512;BME280;49666;52.030;8.884;2023-11-21T10:52:27;100303.66;;;20.26;49.16
63512;BME280;49666;52.030;8.884;2023-11-21T10:54:52;100305.22;;;20.23;49.16
63512;BME280;49666;52.030;8.884;2023-11-21T10:57:18;100311.59;;;20.24;49.25
63512;BME280;49666;52.030;8.884;2023-11-21T10:59:47;100308.41;;;20.25;49.01
63512;BME280;49666;52.030;8.884;2023-11-21T11:02:26;100302.88;;;20.29;48.92
63512;BME280;49666;52.030;8.884;2023-11-21T11:04:53;100305.63;;;20.25;49.23
63512;BME280;49666;52.030;8.884;2023-11-21T11:07:21;100310.84;;;20.27;48.88
63512;BME280;49666;52.030;8.884;2023-11-21T11:09:50;100311.63;;;20.31;48.88
63512;BME280;49666;52.030;8.884;2023-11-21T11:12:16;100314.47;;;20.35;48.95
63512;BME280;49666;52.030;8.884;2023-11-21T11:14:42;100320.81;;;20.32;48.97
63512;BME280;49666;52.030;8.884;2023-11-21T11:17:10;100324.81;;;20.34;49.00
63512;BME280;49666;52.030;8.884;2023-11-21T11:19:36;100323.22;;;20.37;48.85
63512;BME280;49666;52.030;8.884;2023-11-21T11:22:27;100328.81;;;20.37;48.92
63512;BME280;49666;52.030;8.884;2023-11-21T11:30:26;100344.31;;;20.31;48.92
63512;BME280;49666;52.030;8.884;2023-11-21T11:35:49;100353.84;;;20.30;48.80
63512;BME280;49666;52.030;8.884;2023-11-21T11:38:17;100355.06;;;20.29;48.82
63512;BME280;49666;52.030;8.884;2023-11-21T11:40:46;100351.88;;;20.30;48.78
63512;BME280;49666;52.030;8.884;2023-11-21T11:43:12;100365.44;;;20.32;48.64
63512;BME280;49666;52.030;8.884;2023-11-21T11:45:38;100364.22;;;20.33;48.85
63512;BME280;49666;52.030;8.884;2023-11-21T11:48:11;100367.84;;;20.33;48.83
63512;BME280;49666;52.030;8.884;2023-11-21T11:50:42;100363.88;;;20.34;48.88
63512;BME280;49666;52.030;8.884;2023-11-21T11:53:15;100369.81;;;20.33;48.88
63512;BME280;49666;52.030;8.884;2023-11-21T11:55:41;100372.59;;;20.29;48.90
63512;BME280;49666;52.030;8.884;2023-11-21T11:58:07;100366.22;;;20.29;49.26
63512;BME280;49666;52.030;8.884;2023-11-21T12:03:00;100366.59;;;20.27;49.20
63512;BME280;49666;52.030;8.884;2023-11-21T12:05:29;100365.41;;;20.28;49.10
63512;BME280;49666;52.030;8.884;2023-11-21T12:07:57;100376.16;;;20.26;49.08
63512;BME280;49666;52.030;8.884;2023-11-21T12:10:30;100377.31;;;20.25;49.24
63512;BME280;49666;52.030;8.884;2023-11-21T12:12:58;100393.22;;;20.21;49.24
63512;BME280;49666;52.030;8.884;2023-11-21T12:15:24;100390.44;;;20.21;49.32
63512;BME280;49666;52.030;8.884;2023-11-21T12:17:52;100393.63;;;20.19;49.50
63512;BME280;49666;52.030;8.884;2023-11-21T12:20:22;100394.03;;;20.21;49.23
63512;BME280;49666;52.030;8.884;2023-11-21T12:22:50;100400.41;;;20.25;49.06
63512;BME280;49666;52.030;8.884;2023-11-21T12:25:20;100410.44;;;20.30;49.06
63512;BME280;49666;52.030;8.884;2023-11-21T12:27:50;100417.59;;;20.31;48.92
63512;BME280;49666;52.030;8.884;2023-11-21T12:30:18;100424.00;;;20.32;48.86
63512;BME280;49666;52.030;8.884;2023-11-21T12:32:47;100419.22;;;20.32;48.67
63512;BME280;49666;52.030;8.884;2023-11-21T12:35:14;100428.00;;;20.34;48.92
63512;BME280;49666;52.030;8.884;2023-11-21T12:37:40;100429.59;;;20.35;48.86
63512;BME280;49666;52.030;8.884;2023-11-21T12:40:09;100438.38;;;20.37;48.70
63512;BME280;49666;52.030;8.884;2023-11-21T12:42:56;100432.41;;;20.39;48.66
63512;BME280;49666;52.030;8.884;2023-11-21T12:47:49;100435.22;;;20.42;48.34
63512;BME280;49666;52.030;8.884;2023-11-21T12:50:18;100438.44;;;20.45;48.57
63512;BME280;49666;52.030;8.884;2023-11-21T12:52:47;100433.66;;;20.45;48.53
63512;BME280;49666;52.030;8.884;2023-11-21T12:55:16;100440.84;;;20.46;48.33
63512;BME280;49666;52.030;8.884;2023-11-21T12:57:45;100433.66;;;20.45;48.36
63512;BME280;49666;52.030;8.884;2023-11-21T13:00:12;100439.22;;;20.45;48.03
63512;BME280;49666;52.030;8.884;2023-11-21T13:02:50;100447.97;;;20.43;48.46
63512;BME280;49666;52.030;8.884;2023-11-21T13:05:25;100465.94;;;20.46;48.44
63512;BME280;49666;52.030;8.884;2023-11-21T13:07:52;100469.13;;;20.45;48.37